Aeroporto :
LOGIN :

Iscrizione | Disclaimer

   EN    FR    IT 

 










Sommario :    VFR   VFR Marginale   IFR   IFR Intensivo   IFR Molto Intensivo
Visibilità : 
Base nubi : 
>= 8 km
>= 3000ft
5 / 8 km
1000 / 3000 ft
1500m / 5 km
500 / 1000 ft
800 / 1500m
200 / 500 ft
< 800m
< 200 ft
Simboli :   Temporali  Nebbia  Neve Forte  Precipitazioni Forti  Vento > 20 kt
SIGMETs :   Varie  Temporali  Ghiacco  Turbolenza  Onda orograficha  Ceneri Vulcaniche






- Altitudine del aeroporto : 124 ft
- Codice IATA : AVN


LFMV - Avignon Caumont

ULTIMO METAR :
  • 141830Z AUTO 06005KT 8000 RA FEW015/// BKN035/// BKN044/// ///CB 08/06 Q0995 BECMG NSW BKN013

METARs OBSOLETI :
  • 141800Z AUTO 21004KT 150V250 5000 +RA BR FEW009/// BKN015/// BKN020/// ///CB 08/06 Q0995 TEMPO VRB15KT BECMG NSW BKN013
  • 141730Z AUTO 22008KT 140V270 7000 RA FEW011/// OVC030/// ///CB 08/05 Q0995 TEMPO 3000 +RA BECMG BKN013
  • 141700Z AUTO 11015G26KT 9999 -RA BKN034/// OVC040/// ///TCU 07/04 Q0994 TEMPO VRB15KT 3000 +RA BKN005 BKN015TCU
  • 141630Z AUTO 10019G30KT 9999 -RA OVC039/// ///TCU 08/04 Q0994 TEMPO VRB15KT 3000 +RA BKN005 BKN015TCU
  • 141600Z AUTO 10018G29KT 070V130 9999 -RA BKN046/// BKN056/// OVC068/// ///TCU 08/05 Q0994 TEMPO 3000 -TSRA SCT016 BKN030CB

TAF AMD TAF LFMV
Valido dal 14 a 18 ore il 15 a 15 ore UTC


141827Z 1418/1515 12020G30KT 9999 -RA BKN045
TEMPO 1418/1420 VRB12KT 3000 RA BKN005 BKN015CB
BECMG 1419/1421 32006G16KT BKN013
BECMG 1421/1423 28005KT
BECMG 1423/1501 VRB03KT 4000 BR NSC
PROB40
TEMPO 1501/1507 1500 BCFG BKN003
PROB40
TEMPO 1507/1510 0500 FG VV///
BECMG 1510/1512 34005KT 9999 SCT015
ATIS : +33 4 90 84 32 84



MetMap, La meteo Aeronautica in un colpo d'occhio ! - Copyright ORBIFLY Dicembre 2007 - Disclaimer

ORBIFLY MET'MAP TEAM :

Programmazione e sviluppo : Alexandra Zaïnal
Concezione e sviluppo : Baudouin d'Aumeries
Co-Programmazione e sviluppo : Marc-Olivier Méhu
Supporto tecnico e logistico : Manuel Goepfert
Aiuto per la traduzione : Arnaldo La Scala

Contatto : metmap@orbifly.com




FONTI E CREDITI :

   NOAA